createdAt,value
2017-08-31T00:00:40.451Z,70.50
2017-08-31T00:03:15.434Z,76.50
2017-08-31T00:05:50.186Z,71.17
2017-08-31T00:08:25.056Z,67.53
2017-08-31T00:11:00.075Z,63.53
2017-08-31T00:13:35.003Z,68.90
2017-08-31T00:16:10.127Z,65.07
2017-08-31T00:18:44.858Z,62.23
2017-08-31T00:21:19.762Z,60.07
2017-08-31T00:23:54.436Z,54.70
2017-08-31T00:26:29.343Z,60.73
2017-08-31T00:29:04.166Z,71.20
2017-08-31T00:31:38.929Z,59.80
2017-08-31T00:34:13.526Z,61.50
2017-08-31T00:36:48.259Z,64.87
2017-08-31T00:39:23.091Z,60.57
2017-08-31T00:41:58.463Z,60.20
2017-08-31T00:44:33.467Z,59.80
2017-08-31T00:47:07.835Z,58.47
2017-08-31T00:49:42.783Z,56.20
2017-08-31T00:52:17.102Z,54.87
2017-08-31T00:54:51.307Z,48.00
2017-08-31T00:57:26.342Z,38.57
2017-08-31T01:00:02.320Z,30.13
2017-08-31T01:02:37.204Z,30.10
2017-08-31T01:05:11.642Z,26.93
2017-08-31T01:07:46.412Z,25.10
2017-08-31T01:10:21.450Z,24.17
2017-08-31T01:12:56.215Z,23.07
2017-08-31T01:15:30.972Z,21.53
2017-08-31T01:18:05.910Z,17.07
2017-08-31T01:20:40.498Z,19.00
2017-08-31T01:23:15.468Z,22.60
2017-08-31T01:25:50.007Z,19.23
2017-08-31T01:28:24.926Z,18.43
2017-08-31T01:30:59.727Z,17.17
2017-08-31T01:33:34.443Z,17.43
2017-08-31T01:36:09.659Z,15.10
2017-08-31T01:38:43.971Z,17.37
2017-08-31T01:41:19.075Z,16.63
2017-08-31T01:43:54.431Z,21.10
2017-08-31T01:46:29.455Z,19.33
2017-08-31T01:49:04.361Z,15.30
2017-08-31T01:51:39.179Z,22.80
2017-08-31T01:54:13.235Z,20.63
2017-08-31T01:56:48.342Z,23.63
2017-08-31T01:59:24.354Z,26.20
2017-08-31T02:01:59.639Z,24.30
2017-08-31T02:04:34.522Z,25.47
2017-08-31T02:07:09.464Z,27.13
2017-08-31T02:09:44.635Z,26.33
2017-08-31T02:12:20.057Z,31.57
2017-08-31T02:14:55.175Z,29.83
2017-08-31T02:17:29.766Z,31.33
2017-08-31T02:20:04.119Z,33.17
2017-08-31T02:22:39.267Z,31.43
2017-08-31T02:25:13.990Z,31.20
2017-08-31T02:27:48.959Z,28.07
2017-08-31T02:30:23.687Z,28.87
2017-08-31T02:32:58.247Z,25.67
2017-08-31T02:35:33.343Z,31.97
2017-08-31T02:38:07.747Z,26.30
2017-08-31T02:40:42.967Z,25.00
2017-08-31T02:43:17.907Z,26.73
2017-08-31T02:45:52.664Z,25.83
2017-08-31T02:48:27.420Z,26.27
2017-08-31T02:51:02.295Z,27.63
2017-08-31T02:53:37.219Z,27.17
2017-08-31T02:56:12.001Z,27.93
2017-08-31T02:58:46.932Z,34.80
2017-08-31T03:01:21.682Z,33.37
2017-08-31T03:03:56.891Z,30.87
2017-08-31T03:06:31.771Z,26.40
2017-08-31T03:09:06.920Z,31.60
2017-08-31T03:11:41.836Z,31.67
2017-08-31T03:14:17.032Z,33.03
2017-08-31T03:16:51.975Z,32.10
2017-08-31T03:19:26.730Z,31.03
2017-08-31T03:22:02.566Z,31.90
2017-08-31T03:24:37.518Z,32.43
2017-08-31T03:27:12.443Z,29.67
2017-08-31T03:29:47.099Z,31.47
2017-08-31T03:32:21.915Z,25.93
2017-08-31T03:34:56.609Z,31.53
2017-08-31T03:37:31.559Z,32.53
2017-08-31T03:40:06.311Z,30.67
2017-08-31T03:42:41.206Z,24.67
2017-08-31T03:45:16.163Z,22.60
2017-08-31T03:47:50.971Z,22.60
2017-08-31T03:50:25.818Z,22.53
2017-08-31T03:53:00.674Z,16.97
2017-08-31T03:55:35.473Z,14.90
2017-08-31T03:58:10.279Z,17.10
2017-08-31T04:00:45.559Z,15.90
2017-08-31T04:03:20.495Z,15.00
2017-08-31T04:05:55.310Z,10.30
2017-08-31T04:08:30.079Z,13.93
2017-08-31T04:11:04.883Z,11.77
2017-08-31T04:13:39.626Z,11.00
2017-08-31T04:16:14.422Z,11.43
2017-08-31T04:18:49.958Z,12.17
2017-08-31T04:21:25.307Z,9.53
2017-08-31T04:24:00.559Z,10.23
2017-08-31T04:26:35.376Z,10.03
2017-08-31T04:29:10.119Z,8.40
2017-08-31T04:31:44.784Z,8.50
2017-08-31T04:34:19.542Z,7.40
2017-08-31T04:36:54.512Z,7.27
2017-08-31T04:39:29.316Z,6.33
2017-08-31T04:42:04.166Z,6.20
2017-08-31T04:44:38.963Z,6.67
2017-08-31T04:47:13.704Z,6.40
2017-08-31T04:49:48.451Z,5.10
2017-08-31T04:52:23.448Z,7.47
2017-08-31T04:54:58.251Z,7.13
2017-08-31T04:57:32.762Z,6.20
2017-08-31T05:00:08.264Z,7.03
2017-08-31T05:02:42.608Z,9.80
2017-08-31T05:05:17.578Z,7.77
2017-08-31T05:07:52.190Z,8.50
2017-08-31T05:10:27.002Z,8.70
2017-08-31T05:13:01.635Z,9.17
2017-08-31T05:15:36.371Z,10.57
2017-08-31T05:18:11.175Z,10.27
2017-08-31T05:20:45.931Z,9.60
2017-08-31T05:23:20.588Z,10.77
2017-08-31T05:25:55.312Z,11.30
2017-08-31T05:28:30.131Z,9.37
2017-08-31T05:31:04.739Z,10.83
2017-08-31T05:33:39.342Z,12.00
2017-08-31T05:36:14.400Z,7.80
2017-08-31T05:38:48.951Z,10.90
2017-08-31T05:41:23.707Z,12.80
2017-08-31T05:43:58.484Z,15.10
2017-08-31T05:46:33.259Z,8.40
2017-08-31T05:49:07.840Z,9.77
2017-08-31T05:51:42.668Z,8.80
2017-08-31T05:54:17.493Z,8.03
2017-08-31T05:56:52.438Z,7.20
2017-08-31T05:59:26.967Z,9.20
2017-08-31T06:02:01.495Z,9.43
2017-08-31T06:04:36.151Z,11.57
2017-08-31T06:07:10.651Z,8.40
2017-08-31T06:09:45.275Z,7.30
2017-08-31T06:12:19.945Z,5.70
2017-08-31T06:14:54.459Z,5.57
2017-08-31T06:17:29.437Z,4.43
2017-08-31T06:20:04.112Z,5.23
2017-08-31T06:22:38.902Z,6.63
2017-08-31T06:25:13.807Z,6.03
2017-08-31T06:27:48.352Z,7.00
2017-08-31T06:30:23.183Z,5.60
2017-08-31T06:32:58.196Z,4.80
2017-08-31T06:35:34.042Z,5.70
2017-08-31T06:38:09.408Z,5.83
2017-08-31T06:40:44.237Z,4.10
2017-08-31T06:43:19.359Z,4.80
2017-08-31T06:45:54.152Z,5.70
2017-08-31T06:48:29.171Z,4.43
2017-08-31T06:51:03.899Z,5.00
2017-08-31T06:53:38.619Z,6.40
2017-08-31T06:56:13.464Z,4.30
2017-08-31T06:58:48.407Z,5.60
2017-08-31T07:01:23.075Z,4.27
2017-08-31T07:03:57.820Z,4.30
2017-08-31T07:06:32.868Z,4.93
2017-08-31T07:09:07.474Z,8.50
2017-08-31T07:11:42.223Z,4.50
2017-08-31T07:14:16.923Z,6.17
2017-08-31T07:16:51.784Z,4.90
2017-08-31T07:19:27.016Z,5.80
2017-08-31T07:22:02.956Z,3.87
2017-08-31T07:24:38.033Z,3.20
2017-08-31T07:27:12.675Z,4.50
2017-08-31T07:29:47.545Z,4.40
2017-08-31T07:32:22.108Z,4.00
2017-08-31T07:34:56.819Z,4.00
2017-08-31T07:37:31.799Z,2.87
2017-08-31T07:40:06.507Z,2.67
2017-08-31T07:42:42.082Z,2.30
2017-08-31T07:45:16.794Z,2.80
2017-08-31T07:47:51.559Z,2.90
2017-08-31T07:50:26.256Z,3.83
2017-08-31T07:53:00.811Z,2.40
2017-08-31T07:55:35.587Z,2.90
2017-08-31T07:58:10.416Z,3.30
2017-08-31T08:00:45.739Z,5.50
2017-08-31T08:03:20.848Z,5.03
2017-08-31T08:05:55.390Z,4.07
2017-08-31T08:08:30.219Z,4.80
2017-08-31T08:11:04.979Z,5.23
2017-08-31T08:13:39.583Z,4.37
2017-08-31T08:16:14.607Z,5.57
2017-08-31T08:18:50.260Z,5.20
2017-08-31T08:21:24.995Z,4.67
2017-08-31T08:23:59.773Z,6.20
2017-08-31T08:26:35.380Z,6.53
2017-08-31T08:29:10.176Z,4.83
2017-08-31T08:31:44.931Z,6.43
2017-08-31T08:34:19.664Z,5.00
2017-08-31T08:36:54.321Z,5.60
2017-08-31T08:39:28.963Z,6.80
2017-08-31T08:42:03.644Z,8.07
2017-08-31T08:44:39.052Z,6.07
2017-08-31T08:47:13.989Z,7.80
2017-08-31T08:49:48.767Z,6.93
2017-08-31T08:52:23.400Z,5.77
2017-08-31T08:54:58.286Z,5.20
2017-08-31T08:57:32.919Z,4.73
2017-08-31T09:00:07.663Z,7.90
2017-08-31T09:02:42.690Z,8.40
2017-08-31T09:05:17.333Z,6.17
2017-08-31T09:07:52.171Z,5.60
2017-08-31T09:10:27.000Z,4.97
2017-08-31T09:13:02.459Z,5.87
2017-08-31T09:15:37.715Z,6.23
2017-08-31T09:18:12.311Z,4.90
2017-08-31T09:20:47.519Z,3.90
2017-08-31T09:23:22.380Z,3.60
2017-08-31T09:25:56.999Z,3.03
2017-08-31T09:28:31.631Z,3.40
2017-08-31T09:31:06.351Z,8.97
2017-08-31T09:33:41.192Z,3.33
2017-08-31T09:36:16.121Z,3.13
2017-08-31T09:38:50.843Z,3.10
2017-08-31T09:41:25.601Z,3.50
2017-08-31T09:44:00.439Z,3.83
2017-08-31T09:46:35.224Z,3.47
2017-08-31T09:49:09.955Z,3.30
2017-08-31T09:51:44.925Z,7.50
2017-08-31T09:54:19.758Z,4.47
2017-08-31T09:56:55.446Z,5.50
2017-08-31T09:59:30.324Z,3.70
2017-08-31T10:02:05.156Z,3.80
2017-08-31T10:04:39.739Z,3.70
2017-08-31T10:07:14.430Z,2.87
2017-08-31T10:09:49.594Z,2.30
2017-08-31T10:12:24.938Z,3.50
2017-08-31T10:14:59.348Z,2.50
2017-08-31T10:17:33.629Z,3.87
2017-08-31T10:20:08.725Z,2.20
2017-08-31T10:22:43.431Z,2.50
2017-08-31T10:25:18.110Z,2.57
2017-08-31T10:27:52.701Z,2.60
2017-08-31T10:30:27.704Z,3.07
2017-08-31T10:33:02.436Z,2.73
2017-08-31T10:35:36.988Z,3.97
2017-08-31T10:38:11.539Z,3.50
2017-08-31T10:40:46.260Z,3.43
2017-08-31T10:43:20.855Z,3.10
2017-08-31T10:45:55.571Z,2.80
2017-08-31T10:48:30.103Z,2.80
2017-08-31T10:51:04.823Z,2.07
2017-08-31T10:53:39.283Z,2.10
2017-08-31T10:56:13.917Z,1.67
2017-08-31T10:58:48.700Z,1.83
2017-08-31T11:01:24.338Z,2.80
2017-08-31T11:03:58.947Z,2.50
2017-08-31T11:06:33.585Z,2.47
2017-08-31T11:09:08.103Z,1.70
2017-08-31T11:11:43.612Z,1.70
2017-08-31T11:14:18.350Z,1.60
2017-08-31T11:16:53.496Z,1.63
2017-08-31T11:19:28.206Z,2.10
2017-08-31T11:22:02.876Z,1.90
2017-08-31T11:24:37.792Z,1.60
2017-08-31T11:27:12.461Z,2.17
2017-08-31T11:29:47.378Z,1.83
2017-08-31T11:32:22.155Z,1.60
2017-08-31T11:34:56.910Z,2.07
2017-08-31T11:37:31.509Z,1.70
2017-08-31T11:40:06.227Z,1.87
2017-08-31T11:42:40.868Z,2.20
2017-08-31T11:45:15.744Z,1.47
2017-08-31T11:47:50.571Z,1.30
2017-08-31T11:50:25.284Z,1.10
2017-08-31T11:52:59.931Z,0.70
2017-08-31T11:55:34.465Z,0.93
2017-08-31T11:58:09.412Z,1.33
2017-08-31T12:00:44.136Z,1.53
2017-08-31T12:03:18.834Z,1.17
2017-08-31T12:05:53.673Z,0.67
2017-08-31T12:08:28.699Z,1.20
2017-08-31T12:11:03.476Z,2.50
2017-08-31T12:13:38.994Z,2.30
2017-08-31T12:16:13.760Z,0.80
2017-08-31T12:18:48.588Z,0.93
2017-08-31T12:21:23.240Z,3.47
2017-08-31T12:23:57.944Z,2.00
2017-08-31T12:26:32.599Z,0.83
2017-08-31T12:29:07.205Z,1.30
2017-08-31T12:31:41.933Z,1.13
2017-08-31T12:34:17.533Z,1.27
2017-08-31T12:36:52.919Z,1.23
2017-08-31T12:39:27.719Z,1.60
2017-08-31T12:42:02.552Z,1.23
2017-08-31T12:44:37.227Z,2.10
2017-08-31T12:47:12.104Z,1.30
2017-08-31T12:49:46.832Z,1.07
2017-08-31T12:52:21.559Z,1.40
2017-08-31T12:54:56.387Z,1.10
2017-08-31T12:57:31.231Z,1.03
2017-08-31T13:00:06.110Z,2.10
2017-08-31T13:02:40.835Z,1.30
2017-08-31T13:05:15.599Z,1.53
2017-08-31T13:07:50.332Z,0.60
2017-08-31T13:10:25.288Z,0.70
2017-08-31T13:13:00.131Z,0.40
2017-08-31T13:15:34.958Z,0.70
2017-08-31T13:18:09.771Z,0.50
2017-08-31T13:20:44.579Z,1.13
2017-08-31T13:23:19.817Z,0.70
2017-08-31T13:25:55.065Z,0.70
2017-08-31T13:28:29.780Z,0.60
2017-08-31T13:31:04.543Z,2.70
2017-08-31T13:33:40.121Z,2.63
2017-08-31T13:36:14.720Z,2.10
2017-08-31T13:38:49.340Z,1.30
2017-08-31T13:41:24.153Z,1.77
2017-08-31T13:43:58.894Z,2.60
2017-08-31T13:46:33.313Z,2.53
2017-08-31T13:49:08.015Z,5.70
2017-08-31T13:51:42.816Z,3.53
2017-08-31T13:54:17.292Z,2.90
2017-08-31T13:56:52.552Z,2.83
2017-08-31T13:59:27.191Z,2.70
2017-08-31T14:02:01.899Z,3.10
2017-08-31T14:04:36.699Z,3.43
2017-08-31T14:07:11.481Z,3.10
2017-08-31T14:09:46.184Z,5.17
2017-08-31T14:12:20.795Z,2.83
2017-08-31T14:14:55.511Z,2.20
2017-08-31T14:17:30.124Z,1.73
2017-08-31T14:20:04.906Z,2.10
2017-08-31T14:22:39.710Z,1.70
2017-08-31T14:25:14.487Z,3.93
2017-08-31T14:27:50.311Z,2.07
2017-08-31T14:30:25.313Z,4.40
2017-08-31T14:32:59.802Z,1.50
2017-08-31T14:35:34.809Z,3.80
2017-08-31T14:38:09.399Z,3.00
2017-08-31T14:40:44.877Z,1.70
2017-08-31T14:43:20.653Z,2.40
2017-08-31T14:45:55.555Z,1.47
2017-08-31T14:48:30.166Z,1.93
2017-08-31T14:51:04.815Z,1.63
2017-08-31T14:53:39.498Z,1.40
2017-08-31T14:56:14.808Z,2.10
2017-08-31T14:58:49.857Z,1.60
2017-08-31T15:01:25.436Z,1.77
2017-08-31T15:04:01.035Z,2.00
2017-08-31T15:06:35.971Z,1.77
2017-08-31T15:09:10.967Z,1.53
2017-08-31T15:11:45.662Z,2.03
2017-08-31T15:14:20.471Z,2.37
2017-08-31T15:16:55.522Z,1.50
2017-08-31T15:19:30.436Z,1.30
2017-08-31T15:22:05.495Z,1.60
2017-08-31T15:24:40.263Z,2.10
2017-08-31T15:27:16.022Z,2.07
2017-08-31T15:29:50.643Z,1.20
2017-08-31T15:32:25.368Z,0.97
2017-08-31T15:35:00.145Z,1.13
2017-08-31T15:37:34.973Z,3.83
2017-08-31T15:40:09.664Z,1.43
2017-08-31T15:42:44.299Z,3.40
2017-08-31T15:45:19.266Z,1.70
2017-08-31T15:47:54.121Z,1.47
2017-08-31T15:50:28.684Z,1.70
2017-08-31T15:53:03.336Z,2.80
2017-08-31T15:55:39.500Z,1.67
2017-08-31T15:58:13.867Z,2.03
2017-08-31T16:00:48.877Z,1.60
2017-08-31T16:03:23.278Z,3.20
2017-08-31T16:05:58.526Z,1.50
2017-08-31T16:08:33.347Z,2.00
2017-08-31T16:11:08.504Z,1.60
2017-08-31T16:13:43.232Z,2.47
2017-08-31T16:16:18.338Z,1.70
2017-08-31T16:18:53.336Z,2.50
2017-08-31T16:21:28.242Z,1.60
2017-08-31T16:24:02.971Z,3.63
2017-08-31T16:26:38.165Z,1.60
2017-08-31T16:29:13.123Z,1.50
2017-08-31T16:31:47.937Z,2.67
2017-08-31T16:34:22.788Z,2.40
2017-08-31T16:36:57.511Z,1.80
2017-08-31T16:39:32.443Z,2.50
2017-08-31T16:42:07.253Z,1.60
2017-08-31T16:44:41.971Z,3.27
2017-08-31T16:47:16.728Z,2.47
2017-08-31T16:49:51.673Z,4.73
2017-08-31T16:52:26.479Z,1.77
2017-08-31T16:55:01.108Z,3.37
2017-08-31T16:57:36.329Z,3.00
2017-08-31T17:00:11.460Z,1.60
2017-08-31T17:02:46.427Z,2.73
2017-08-31T17:05:21.246Z,2.30
2017-08-31T17:07:56.071Z,3.57
2017-08-31T17:10:30.928Z,4.40
2017-08-31T17:13:06.119Z,2.80
2017-08-31T17:15:40.944Z,3.43
2017-08-31T17:18:16.094Z,3.50
2017-08-31T17:20:52.234Z,2.57
2017-08-31T17:23:26.895Z,2.80
2017-08-31T17:26:01.571Z,3.93
2017-08-31T17:28:36.183Z,2.97
2017-08-31T17:31:11.293Z,2.93
2017-08-31T17:33:46.266Z,2.10
2017-08-31T17:36:21.523Z,3.80
2017-08-31T17:38:56.142Z,3.17
2017-08-31T17:41:30.883Z,5.00
2017-08-31T17:44:05.884Z,3.30
2017-08-31T17:46:40.635Z,3.70
2017-08-31T17:49:15.542Z,5.00
2017-08-31T17:51:50.310Z,2.60
2017-08-31T17:54:25.044Z,6.27
2017-08-31T17:56:59.755Z,2.23
2017-08-31T17:59:34.422Z,3.97
2017-08-31T18:02:09.275Z,2.47
2017-08-31T18:04:44.008Z,2.83
2017-08-31T18:07:18.631Z,3.03
2017-08-31T18:09:53.339Z,4.40
2017-08-31T18:12:28.068Z,2.43
2017-08-31T18:15:02.795Z,4.60
2017-08-31T18:17:37.342Z,2.27
2017-08-31T18:20:11.852Z,2.53
2017-08-31T18:22:46.826Z,2.43
2017-08-31T18:25:21.571Z,3.20
2017-08-31T18:27:56.067Z,3.17
2017-08-31T18:30:30.810Z,6.83
2017-08-31T18:33:05.590Z,3.03
2017-08-31T18:35:40.582Z,4.07
2017-08-31T18:38:15.398Z,2.57
2017-08-31T18:40:50.301Z,2.77
2017-08-31T18:43:25.050Z,4.17
2017-08-31T18:45:59.882Z,2.57
2017-08-31T18:48:34.800Z,2.60
2017-08-31T18:51:09.552Z,5.10
2017-08-31T18:53:44.278Z,3.33
2017-08-31T18:56:19.107Z,3.23
2017-08-31T18:58:53.855Z,4.53
2017-08-31T19:01:28.740Z,5.50
2017-08-31T19:04:03.531Z,3.00
2017-08-31T19:06:38.249Z,3.10
2017-08-31T19:09:12.872Z,2.97
2017-08-31T19:11:47.566Z,3.53
2017-08-31T19:14:22.555Z,3.00
2017-08-31T19:16:57.222Z,2.90
2017-08-31T19:19:31.906Z,4.80
2017-08-31T19:22:06.668Z,4.27
2017-08-31T19:24:41.535Z,4.20
2017-08-31T19:27:16.367Z,8.03
2017-08-31T19:29:51.082Z,5.43
2017-08-31T19:32:25.920Z,3.20
2017-08-31T19:35:00.964Z,3.50
2017-08-31T19:37:35.602Z,4.40
2017-08-31T19:40:10.679Z,3.90
2017-08-31T19:42:45.316Z,4.47
2017-08-31T19:45:20.264Z,7.37
2017-08-31T19:47:55.371Z,8.90
2017-08-31T19:50:30.117Z,3.83
2017-08-31T19:53:04.806Z,4.70
2017-08-31T19:55:39.670Z,6.13
2017-08-31T19:58:14.314Z,5.00
2017-08-31T20:00:49.145Z,8.53
2017-08-31T20:03:23.944Z,3.40
2017-08-31T20:05:58.909Z,4.07
2017-08-31T20:08:33.600Z,3.77
2017-08-31T20:11:08.372Z,3.87
2017-08-31T20:13:43.283Z,5.20
2017-08-31T20:16:18.032Z,4.23
2017-08-31T20:18:52.987Z,3.73
2017-08-31T20:21:27.592Z,3.33
2017-08-31T20:24:02.501Z,3.43
2017-08-31T20:26:37.547Z,3.40
2017-08-31T20:29:12.183Z,3.70
2017-08-31T20:31:46.831Z,3.63
2017-08-31T20:34:21.832Z,3.40
2017-08-31T20:36:56.628Z,4.70
2017-08-31T20:39:31.399Z,6.40
2017-08-31T20:42:06.115Z,4.53
2017-08-31T20:44:40.947Z,4.40
2017-08-31T20:47:15.722Z,5.00
2017-08-31T20:49:51.063Z,4.70
2017-08-31T20:52:25.964Z,10.03
2017-08-31T20:55:00.786Z,7.83
2017-08-31T20:57:35.634Z,5.00
2017-08-31T21:00:10.327Z,7.73
2017-08-31T21:02:46.330Z,3.97
2017-08-31T21:05:20.954Z,4.67
2017-08-31T21:07:56.163Z,4.80
2017-08-31T21:10:31.883Z,4.93
2017-08-31T21:13:06.251Z,4.97
2017-08-31T21:15:40.946Z,5.20
2017-08-31T21:18:15.588Z,5.73
2017-08-31T21:20:50.357Z,4.70
2017-08-31T21:23:25.063Z,3.93
2017-08-31T21:25:59.954Z,4.40
2017-08-31T21:28:34.738Z,4.97
2017-08-31T21:31:09.616Z,6.90
2017-08-31T21:33:44.483Z,4.53
2017-08-31T21:36:19.223Z,4.50
2017-08-31T21:38:54.030Z,4.77
2017-08-31T21:41:28.803Z,6.77
2017-08-31T21:44:03.387Z,4.67
2017-08-31T21:46:38.039Z,5.20
2017-08-31T21:49:12.764Z,4.73
2017-08-31T21:51:47.523Z,5.50
2017-08-31T21:54:21.831Z,6.10
2017-08-31T21:56:57.307Z,4.37
2017-08-31T21:59:31.906Z,9.00
2017-08-31T22:02:07.217Z,6.43
2017-08-31T22:04:42.280Z,4.83
2017-08-31T22:07:17.018Z,6.30
2017-08-31T22:09:51.739Z,5.80
2017-08-31T22:12:26.682Z,5.30
2017-08-31T22:15:01.424Z,5.03
2017-08-31T22:17:36.357Z,5.23
2017-08-31T22:20:11.072Z,5.47
2017-08-31T22:22:45.819Z,5.00
2017-08-31T22:25:20.544Z,5.37
2017-08-31T22:27:55.394Z,5.83
2017-08-31T22:30:30.128Z,6.53
2017-08-31T22:33:05.915Z,6.20
2017-08-31T22:35:40.584Z,8.67
2017-08-31T22:38:15.132Z,6.87
2017-08-31T22:40:49.872Z,5.27
2017-08-31T22:43:24.539Z,6.53
2017-08-31T22:45:59.251Z,7.70
2017-08-31T22:48:34.050Z,8.73
2017-08-31T22:51:09.848Z,6.87
2017-08-31T22:53:44.392Z,6.20
2017-08-31T22:56:18.857Z,5.83
2017-08-31T22:58:54.007Z,6.30
2017-08-31T23:01:28.195Z,6.07
2017-08-31T23:04:03.211Z,5.80
2017-08-31T23:06:37.905Z,6.60
2017-08-31T23:09:12.526Z,5.47
2017-08-31T23:11:47.634Z,5.03
2017-08-31T23:14:22.764Z,6.30
2017-08-31T23:16:57.840Z,7.20
2017-08-31T23:19:32.387Z,8.00
2017-08-31T23:22:07.175Z,5.53
2017-08-31T23:24:42.578Z,5.90
2017-08-31T23:27:17.279Z,6.17
2017-08-31T23:29:52.147Z,6.70
2017-08-31T23:32:26.665Z,7.33
2017-08-31T23:35:01.417Z,9.03
2017-08-31T23:37:36.620Z,5.80
2017-08-31T23:40:11.512Z,6.07
2017-08-31T23:42:46.303Z,7.67
2017-08-31T23:45:21.044Z,6.77
2017-08-31T23:47:55.937Z,8.13
2017-08-31T23:50:30.647Z,5.50
2017-08-31T23:53:05.426Z,7.40
2017-08-31T23:55:41.256Z,6.60
2017-08-31T23:58:15.853Z,6.67
